Time;durP1;ratioP1;P1;durP2;ratioP2;P2;SDS_P1;SDS_P2;PMS_P1;PMS_P2;Temp;Humidity;BMP_temperature;BMP_pressure;BME280_temperature;BME280_humidity;BME280_pressure;Samples;Min_cycle;Max_cycle;Signal;HPM_P1;HPM_P2
2022/05/30 00:00:38;;;;;;;1.60;0.80;;;;;;;7.91;86.04;95682.84;5036686;28;20229;-69
2022/05/30 00:03:05;;;;;;;1.87;1.30;;;;;;;7.69;88.31;95688.88;5036849;28;20209;-70
2022/05/30 00:05:31;;;;;;;1.63;1.13;;;;;;;7.78;88.19;95697.50;5037116;28;20741;-69
2022/05/30 00:07:58;;;;;;;1.60;1.10;;;;;;;7.83;86.89;95701.25;5032981;28;20647;-70
2022/05/30 00:10:25;;;;;;;1.37;0.90;;;;;;;7.75;85.99;95690.81;5037506;28;20577;-69
2022/05/30 00:12:52;;;;;;;2.13;1.20;;;;;;;7.76;86.60;95689.81;5036434;28;20669;-70
2022/05/30 00:15:21;;;;;;;3.20;1.23;;;;;;;7.66;89.16;95689.25;5036803;28;20205;-70
2022/05/30 00:17:49;;;;;;;2.37;1.30;;;;;;;7.57;90.37;95690.25;5036355;28;20201;-70
2022/05/30 00:20:16;;;;;;;1.13;1.00;;;;;;;7.50;89.58;95681.44;5036719;28;20986;-70
2022/05/30 00:22:42;;;;;;;1.03;0.83;;;;;;;7.63;87.59;95691.38;5036062;28;20208;-69
2022/05/30 00:25:09;;;;;;;2.20;1.00;;;;;;;7.80;86.17;95685.84;5036876;28;20255;-70
2022/05/30 00:27:35;;;;;;;1.07;0.97;;;;;;;7.72;85.64;95683.28;5036414;28;20216;-70
2022/05/30 00:30:02;;;;;;;2.00;1.20;;;;;;;7.67;86.12;95680.38;5036781;28;20208;-68
2022/05/30 00:32:29;;;;;;;1.40;1.30;;;;;;;7.59;89.18;95687.47;5036035;28;20681;-69
2022/05/30 00:34:56;;;;;;;2.10;1.27;;;;;;;7.65;89.15;95677.13;5036510;28;20205;-69
2022/05/30 00:37:25;;;;;;;1.70;1.47;;;;;;;7.48;87.98;95680.78;5036668;28;20217;-70
2022/05/30 00:39:52;;;;;;;1.10;0.80;;;;;;;7.54;86.10;95676.69;5036714;28;20258;-69
2022/05/30 00:42:21;;;;;;;1.30;1.10;;;;;;;7.50;87.09;95678.81;5035524;28;20248;-69
2022/05/30 00:44:49;;;;;;;7.07;1.13;;;;;;;7.35;90.29;95675.28;5036383;28;20283;-69
2022/05/30 00:47:16;;;;;;;1.53;1.30;;;;;;;7.22;91.38;95668.16;5036173;28;20229;-70
2022/05/30 00:49:45;;;;;;;3.00;1.70;;;;;;;7.02;94.57;95666.94;5036625;28;20201;-69
2022/05/30 00:52:17;;;;;;;2.17;1.20;;;;;;;7.31;94.29;95663.53;5036548;28;20201;-70
2022/05/30 00:54:48;;;;;;;2.17;1.40;;;;;;;7.51;91.50;95667.38;5036434;28;20201;-69
2022/05/30 00:57:23;;;;;;;2.13;1.47;;;;;;;7.33;88.41;95661.56;5036760;28;20239;-70
2022/05/30 00:59:54;;;;;;;2.53;1.30;;;;;;;7.40;89.17;95646.75;5036730;28;20663;-70
2022/05/30 01:02:23;;;;;;;1.83;1.07;;;;;;;7.26;90.86;95650.09;5035435;28;20225;-69
2022/05/30 01:07:37;;;;;;;2.53;1.30;;;;;;;7.17;92.51;95639.03;5033415;28;20228;-69
2022/05/30 01:10:07;;;;;;;1.83;1.23;;;;;;;7.08;91.05;95640.06;5036328;28;20209;-70
2022/05/30 01:12:39;;;;;;;2.20;1.37;;;;;;;7.23;89.15;95633.09;5035853;28;20224;-69
2022/05/30 01:15:09;;;;;;;1.67;1.30;;;;;;;7.29;88.55;95647.16;5036303;28;20224;-70
2022/05/30 01:17:41;;;;;;;2.80;1.27;;;;;;;7.38;88.22;95637.44;5035522;28;20228;-70
2022/05/30 01:20:17;;;;;;;2.17;1.30;;;;;;;7.35;87.26;95638.59;5036503;28;20201;-70
2022/05/30 01:23:04;;;;;;;2.43;1.27;;;;;;;7.57;86.71;95631.75;5035997;28;20232;-69
2022/05/30 01:25:47;;;;;;;2.50;1.33;;;;;;;7.44;87.24;95640.19;5035609;28;20208;-70
2022/05/30 01:28:31;;;;;;;1.77;1.40;;;;;;;7.19;87.62;95637.06;5036143;28;20203;-69
2022/05/30 01:30:58;;;;;;;1.57;1.30;;;;;;;7.15;87.38;95625.28;5040290;28;20212;-68
2022/05/30 01:36:46;;;;;;;2.23;1.30;;;;;;;7.20;86.33;95622.97;5035886;28;20283;-69
2022/05/30 01:39:12;;;;;;;3.67;1.33;;;;;;;7.08;88.25;95619.13;5040064;28;20197;-69
2022/05/30 01:41:39;;;;;;;4.00;1.60;;;;;;;7.06;87.38;95615.84;5039532;28;20232;-70
2022/05/30 01:44:06;;;;;;;1.93;1.40;;;;;;;7.07;87.55;95612.22;5039183;28;20212;-69
2022/05/30 01:46:33;;;;;;;2.97;1.57;;;;;;;6.99;87.10;95614.91;5039448;28;20790;-69
2022/05/30 01:49:00;;;;;;;2.77;1.63;;;;;;;6.93;86.57;95611.13;5039450;28;20206;-70
2022/05/30 01:51:26;;;;;;;3.00;1.50;;;;;;;7.07;85.69;95607.78;5039947;28;20197;-69
2022/05/30 01:53:53;;;;;;;1.73;1.30;;;;;;;7.04;86.64;95607.31;5039091;28;20574;-69
2022/05/30 01:56:20;;;;;;;1.73;1.27;;;;;;;7.12;88.39;95605.47;5039207;28;20655;-70
2022/05/30 01:58:47;;;;;;;3.03;1.83;;;;;;;7.03;88.81;95596.03;5039510;28;20201;-69
2022/05/30 02:01:18;;;;;;;3.53;1.63;;;;;;;7.12;90.65;95602.88;5039789;28;20275;-70
2022/05/30 02:03:45;;;;;;;4.10;1.73;;;;;;;6.91;88.62;95605.25;5038798;28;20197;-70
2022/05/30 02:06:11;;;;;;;2.37;1.30;;;;;;;6.70;86.37;95604.19;5036379;28;20267;-69
2022/05/30 02:08:38;;;;;;;3.73;1.63;;;;;;;6.81;86.02;95604.66;5039215;28;20205;-69
2022/05/30 02:11:04;;;;;;;2.57;1.43;;;;;;;6.93;86.97;95605.91;5039940;28;20201;-70
2022/05/30 02:13:31;;;;;;;1.73;1.30;;;;;;;6.86;87.23;95604.13;5037942;28;20768;-69
2022/05/30 02:18:43;;;;;;;2.53;1.73;;;;;;;6.85;87.35;95602.50;5039208;28;20330;-69
2022/05/30 02:21:09;;;;;;;2.37;1.57;;;;;;;6.73;87.67;95599.44;5038406;28;20232;-70
2022/05/30 02:23:36;;;;;;;4.23;1.80;;;;;;;6.72;88.40;95599.59;5038550;28;20688;-69
2022/05/30 02:26:03;;;;;;;5.03;1.67;;;;;;;6.78;90.13;95598.91;5035344;28;20221;-70
2022/05/30 02:28:29;;;;;;;2.70;1.70;;;;;;;6.54;86.58;95599.00;5038398;28;20205;-69
2022/05/30 02:30:57;;;;;;;1.40;1.30;;;;;;;6.41;86.62;95601.31;5039195;28;20274;-70
2022/05/30 02:38:52;;;;;;;2.77;1.40;;;;;;;6.70;85.66;95615.47;5038583;28;20213;-69
2022/05/30 02:41:19;;;;;;;3.33;1.60;;;;;;;6.64;85.96;95615.31;5038918;28;20225;-69
2022/05/30 02:43:46;;;;;;;2.10;1.60;;;;;;;6.61;87.65;95614.88;5037652;28;21046;-70
2022/05/30 02:46:12;;;;;;;3.33;1.60;;;;;;;6.65;87.50;95614.34;5038644;28;20232;-68
2022/05/30 02:48:39;;;;;;;2.47;1.53;;;;;;;6.63;86.72;95613.69;5038727;28;20209;-70
2022/05/30 02:51:06;;;;;;;2.03;1.50;;;;;;;6.39;86.76;95615.56;5038474;28;20210;-69
2022/05/30 02:53:34;;;;;;;2.30;1.60;;;;;;;6.49;87.52;95611.78;5037896;28;20299;-69
2022/05/30 02:56:01;;;;;;;6.53;2.23;;;;;;;6.24;90.11;95612.81;5037979;28;20216;-68
2022/05/30 02:58:27;;;;;;;3.37;2.10;;;;;;;6.39;89.96;95613.78;5038094;28;20665;-69
2022/05/30 03:00:54;;;;;;;2.23;1.60;;;;;;;6.26;87.91;95610.84;5038613;28;20244;-70
2022/05/30 03:03:20;;;;;;;2.33;1.60;;;;;;;6.40;86.69;95618.03;5037357;28;20197;-68
2022/05/30 03:05:47;;;;;;;2.10;1.60;;;;;;;6.29;86.59;95610.50;5037272;28;20225;-68
2022/05/30 03:08:14;;;;;;;3.93;2.00;;;;;;;6.26;87.75;95621.31;5036091;28;20204;-69
2022/05/30 03:10:42;;;;;;;3.00;2.13;;;;;;;6.38;89.49;95619.97;5038428;28;20212;-68
2022/05/30 03:13:08;;;;;;;2.43;1.57;;;;;;;6.32;87.40;95625.88;5037261;28;20205;-69
2022/05/30 03:17:58;;;;;;;2.40;1.63;;;;;;;6.51;84.27;95624.69;4992505;27;20567;-69
2022/05/30 03:20:25;;;;;;;2.30;1.50;;;;;;;6.17;85.54;95629.31;4990965;28;20213;-69
2022/05/30 03:22:52;;;;;;;2.30;1.37;;;;;;;6.17;85.38;95627.53;4990212;28;20213;-70
2022/05/30 03:25:19;;;;;;;3.30;2.03;;;;;;;6.26;86.64;95626.56;4991140;28;20210;-70
2022/05/30 03:27:46;;;;;;;3.83;1.83;;;;;;;6.32;87.64;95623.25;4991239;28;20223;-71
2022/05/30 03:30:13;;;;;;;4.83;2.40;;;;;;;6.30;89.05;95635.69;4990656;28;20627;-69
2022/05/30 03:32:41;;;;;;;2.57;1.70;;;;;;;6.37;87.85;95628.81;4990478;28;20578;-69
2022/05/30 03:35:09;;;;;;;2.93;1.90;;;;;;;6.50;86.53;95630.91;4991266;28;20674;-67
2022/05/30 03:37:36;;;;;;;4.67;2.33;;;;;;;6.11;86.65;95632.63;4990768;28;20218;-69
2022/05/30 03:40:04;;;;;;;3.27;1.83;;;;;;;5.90;87.17;95640.13;4990865;28;20206;-68
2022/05/30 03:42:30;;;;;;;6.10;1.90;;;;;;;6.15;86.47;95641.75;4990557;28;20211;-68
2022/05/30 03:44:56;;;;;;;2.80;1.83;;;;;;;6.25;86.64;95640.59;4990820;28;21014;-68
2022/05/30 03:47:23;;;;;;;4.70;2.40;;;;;;;6.29;87.46;95641.09;4989828;28;20235;-67
2022/05/30 03:49:50;;;;;;;5.23;2.57;;;;;;;6.41;89.10;95634.53;4991050;28;20222;-69
2022/05/30 03:52:17;;;;;;;4.43;1.90;;;;;;;6.54;87.14;95640.06;4990335;28;20213;-69
2022/05/30 03:54:44;;;;;;;2.83;1.80;;;;;;;6.45;85.86;95647.09;4990576;28;20210;-68
2022/05/30 03:57:11;;;;;;;2.60;1.70;;;;;;;6.24;85.72;95648.63;4990371;28;20227;-67
2022/05/30 03:59:37;;;;;;;2.97;1.90;;;;;;;6.29;86.00;95647.13;4990540;28;20252;-68
2022/05/30 04:02:05;;;;;;;3.27;2.07;;;;;;;6.47;87.35;95644.34;4990359;28;20207;-68
2022/05/30 04:04:31;;;;;;;2.87;1.80;;;;;;;6.33;88.10;95651.06;4989909;28;20582;-69
2022/05/30 04:06:58;;;;;;;5.30;2.10;;;;;;;6.41;89.97;95656.28;4987234;28;20267;-69
2022/05/30 04:09:26;;;;;;;2.83;2.07;;;;;;;6.71;88.47;95652.97;4990161;28;20199;-68
2022/05/30 04:11:52;;;;;;;2.50;2.07;;;;;;;6.56;87.89;95641.53;4990503;28;20207;-69
2022/05/30 04:14:19;;;;;;;4.07;2.00;;;;;;;6.49;87.76;95643.19;4989992;28;20211;-68
2022/05/30 04:16:45;;;;;;;4.37;2.17;;;;;;;6.62;87.90;95647.88;4989796;28;20242;-67
2022/05/30 04:19:12;;;;;;;3.57;2.00;;;;;;;6.75;87.43;95643.78;4990197;28;20923;-67
2022/05/30 04:21:38;;;;;;;3.33;1.93;;;;;;;6.83;87.61;95641.94;4990461;28;20198;-68
2022/05/30 04:24:06;;;;;;;3.13;1.80;;;;;;;6.98;87.70;95647.31;4989474;28;20210;-67
2022/05/30 04:26:33;;;;;;;5.73;2.17;;;;;;;7.05;88.00;95651.69;4989691;28;20980;-68
2022/05/30 04:29:00;;;;;;;4.23;2.30;;;;;;;7.02;88.26;95653.84;4978744;28;20215;-69
2022/05/30 04:31:26;;;;;;;5.83;2.23;;;;;;;7.13;88.94;95649.03;4976976;28;20207;-69
2022/05/30 04:33:53;;;;;;;3.63;2.00;;;;;;;6.93;90.23;95660.09;4976221;28;20207;-68
2022/05/30 04:36:19;;;;;;;7.30;2.10;;;;;;;6.96;91.20;95651.88;4977183;28;20219;-68
2022/05/30 04:38:46;;;;;;;6.33;2.40;;;;;;;7.31;90.55;95654.84;4976883;28;20199;-69
2022/05/30 04:41:12;;;;;;;3.03;2.33;;;;;;;7.19;91.83;95650.16;4976915;28;20207;-68
2022/05/30 04:43:40;;;;;;;5.00;2.90;;;;;;;7.48;92.45;95651.16;4976599;28;21003;-69
2022/05/30 04:46:08;;;;;;;7.27;3.03;;;;;;;7.68;91.63;95654.97;4976405;28;20223;-68
2022/05/30 04:48:34;;;;;;;4.53;2.43;;;;;;;7.73;91.26;95650.03;4975966;28;20432;-69
2022/05/30 04:51:01;;;;;;;4.47;2.93;;;;;;;7.73;92.37;95650.84;4976912;28;20281;-68
2022/05/30 04:53:27;;;;;;;3.77;2.67;;;;;;;7.68;92.45;95655.78;4976572;28;20218;-68
2022/05/30 04:55:54;;;;;;;5.17;2.80;;;;;;;7.78;93.50;95651.13;4975271;28;20255;-68
2022/05/30 04:58:20;;;;;;;4.77;2.73;;;;;;;7.87;93.50;95653.50;4974717;28;20679;-67
2022/05/30 05:00:48;;;;;;;4.00;2.67;;;;;;;8.16;93.84;95642.34;4976247;28;20219;-69
2022/05/30 05:03:15;;;;;;;3.63;2.60;;;;;;;8.08;93.94;95647.63;4975769;28;20218;-68
2022/05/30 05:05:41;;;;;;;6.37;3.00;;;;;;;8.07;93.75;95643.38;4976361;28;20227;-67
2022/05/30 05:08:29;;;;;;;4.83;3.03;;;;;;;8.37;94.25;95647.75;4973184;28;20227;-68
2022/05/30 05:11:04;;;;;;;7.63;4.00;;;;;;;8.29;95.45;95646.00;4975417;28;20211;-69
2022/05/30 05:13:30;;;;;;;5.60;3.33;;;;;;;8.43;95.71;95652.31;4975099;28;20207;-68
2022/05/30 05:15:58;;;;;;;6.20;3.70;;;;;;;8.56;95.46;95653.31;4975467;28;20246;-69
2022/05/30 05:18:25;;;;;;;8.10;3.80;;;;;;;8.54;94.16;95658.75;4975770;28;20209;-68
2022/05/30 05:20:51;;;;;;;7.77;4.33;;;;;;;8.43;94.31;95665.44;4975510;28;20207;-69
2022/05/30 05:23:18;;;;;;;8.00;3.60;;;;;;;8.26;94.20;95671.78;4975565;28;20214;-68
2022/05/30 05:25:44;;;;;;;8.53;4.30;;;;;;;8.31;94.58;95669.44;4975986;28;20223;-68
2022/05/30 05:28:11;;;;;;;6.77;4.03;;;;;;;8.27;95.28;95666.34;4975955;28;20270;-69
2022/05/30 05:30:41;;;;;;;6.20;3.77;;;;;;;8.61;95.39;95661.47;4975803;28;20234;-68
2022/05/30 05:33:10;;;;;;;8.47;3.80;;;;;;;8.63;97.07;95668.16;4975347;28;20218;-69
2022/05/30 05:35:41;;;;;;;6.97;3.67;;;;;;;8.41;98.79;95667.41;4976100;28;20254;-70
2022/05/30 05:38:08;;;;;;;5.10;3.33;;;;;;;8.45;97.80;95671.31;4975469;28;20210;-70
2022/05/30 05:40:38;;;;;;;6.67;4.13;;;;;;;8.09;100.00;95672.88;4974548;28;20211;-70
2022/05/30 05:43:05;;;;;;;6.60;4.17;;;;;;;8.50;99.41;95675.84;4975253;28;21346;-71
2022/05/30 05:45:33;;;;;;;7.93;4.53;;;;;;;8.63;100.00;95675.22;4975460;28;21318;-70
2022/05/30 05:48:00;;;;;;;7.37;4.00;;;;;;;8.72;99.81;95671.56;4975563;28;20231;-71
2022/05/30 05:50:27;;;;;;;6.57;4.10;;;;;;;8.75;99.56;95674.59;4975872;28;20215;-70
2022/05/30 05:52:54;;;;;;;9.70;4.30;;;;;;;8.89;99.62;95676.44;4974693;28;20207;-70
2022/05/30 05:55:20;;;;;;;7.23;4.13;;;;;;;8.89;99.91;95673.81;4974574;28;20632;-69
2022/05/30 05:57:47;;;;;;;9.27;3.90;;;;;;;8.71;100.00;95675.16;4974890;28;20208;-69
2022/05/30 06:00:15;;;;;;;7.53;4.23;;;;;;;9.26;99.49;95678.97;4975321;28;20222;-68
2022/05/30 06:02:42;;;;;;;10.80;4.87;;;;;;;9.59;97.73;95685.47;4974911;28;20218;-68
2022/05/30 06:05:09;;;;;;;9.43;4.57;;;;;;;9.59;98.86;95688.13;4975634;28;20199;-68
2022/05/30 06:07:39;;;;;;;8.83;4.43;;;;;;;9.92;98.24;95692.75;4972027;28;20231;-69
2022/05/30 06:10:08;;;;;;;9.23;4.70;;;;;;;9.91;95.46;95686.66;4975793;28;20584;-70
2022/05/30 06:12:36;;;;;;;7.43;4.60;;;;;;;9.83;95.99;95693.88;4974519;28;20663;-68
2022/05/30 06:15:03;;;;;;;9.30;4.27;;;;;;;9.95;95.78;95687.09;4975618;28;20689;-68
2022/05/30 06:17:32;;;;;;;6.47;4.23;;;;;;;10.27;95.88;95687.47;4974080;28;20227;-69
2022/05/30 06:19:59;;;;;;;7.83;4.20;;;;;;;10.41;94.72;95689.22;4974984;28;20248;-69
2022/05/30 06:22:25;;;;;;;6.73;4.03;;;;;;;10.23;94.88;95688.84;4972820;28;20203;-68
2022/05/30 06:24:53;;;;;;;8.03;4.17;;;;;;;10.67;94.27;95686.81;4974861;28;20204;-68
2022/05/30 06:27:20;;;;;;;6.77;3.87;;;;;;;10.58;93.72;95696.66;4974064;28;20231;-70
2022/05/30 06:29:47;;;;;;;5.30;3.80;;;;;;;10.68;91.01;95691.06;4973713;28;20215;-68
2022/05/30 06:32:14;;;;;;;9.30;4.00;;;;;;;10.75;91.56;95686.69;4973890;28;20680;-70
2022/05/30 06:34:40;;;;;;;6.60;3.67;;;;;;;10.85;89.77;95689.81;4974016;28;20214;-69
2022/05/30 06:37:07;;;;;;;6.17;3.43;;;;;;;11.17;89.87;95693.44;4974331;28;20230;-69
2022/05/30 06:39:34;;;;;;;5.47;3.60;;;;;;;10.93;91.63;95699.19;4974017;28;20207;-69
2022/05/30 06:42:02;;;;;;;6.47;4.00;;;;;;;11.10;92.15;95697.88;4973735;28;20222;-70
2022/05/30 06:44:28;;;;;;;7.07;3.83;;;;;;;11.08;92.44;95694.63;4973979;28;20218;-70
2022/05/30 06:46:55;;;;;;;10.13;4.27;;;;;;;11.18;92.34;95696.91;4974650;28;20227;-69
2022/05/30 06:49:21;;;;;;;6.60;3.80;;;;;;;11.21;92.13;95694.69;4973439;28;20211;-70
2022/05/30 06:51:48;;;;;;;6.33;3.80;;;;;;;11.49;91.07;95695.47;4973645;28;20224;-68
2022/05/30 06:54:14;;;;;;;7.00;4.20;;;;;;;11.35;92.73;95693.75;4974467;28;20218;-69
2022/05/30 06:58:12;;;;;;;5.47;3.70;;;;;;;11.50;89.92;95694.50;4974033;28;20236;-68
2022/05/30 06:59:32;;;;;;;6.17;3.40;;;;;;;11.91;89.25;95692.63;4974471;28;20805;-69
2022/05/30 07:02:00;;;;;;;8.33;4.53;;;;;;;11.97;88.33;95692.66;4974060;28;20206;-70
2022/05/30 07:04:26;;;;;;;5.97;3.90;;;;;;;11.91;89.61;95698.72;4973119;28;20207;-68
2022/05/30 07:06:53;;;;;;;8.53;5.00;;;;;;;12.24;88.76;95695.19;4972839;28;20231;-70
2022/05/30 07:09:19;;;;;;;7.13;3.80;;;;;;;12.31;85.89;95690.72;4973331;28;20558;-69
2022/05/30 07:11:46;;;;;;;7.67;3.80;;;;;;;12.49;84.46;95698.88;4973789;28;20222;-69
2022/05/30 07:14:13;;;;;;;5.63;3.27;;;;;;;12.46;86.19;95701.94;4973273;28;20215;-69
2022/05/30 07:16:41;;;;;;;5.90;3.33;;;;;;;12.74;82.82;95702.56;4973745;28;20661;-72
2022/05/30 07:19:09;;;;;;;5.93;3.50;;;;;;;12.78;84.38;95704.59;4973397;28;20207;-70
2022/05/30 07:21:36;;;;;;;5.43;3.53;;;;;;;12.87;85.02;95702.59;4973304;28;20203;-69
2022/05/30 07:24:02;;;;;;;4.93;3.20;;;;;;;12.85;83.33;95702.78;4974520;28;20258;-70
2022/05/30 07:26:29;;;;;;;6.47;3.83;;;;;;;13.03;84.31;95702.19;4974266;28;20215;-69
2022/05/30 07:28:56;;;;;;;6.73;3.10;;;;;;;13.09;81.27;95701.38;4973828;28;21168;-68
2022/05/30 07:31:25;;;;;;;5.73;3.07;;;;;;;13.21;81.79;95705.00;4974132;28;20206;-70
2022/05/30 07:33:53;;;;;;;6.82;2.97;;;;;;;13.32;81.66;95701.75;4973353;28;20203;-70
2022/05/30 07:36:24;;;;;;;8.53;2.97;;;;;;;13.43;82.60;95700.06;4973707;28;20223;-70
2022/05/30 07:38:51;;;;;;;5.32;3.03;;;;;;;13.44;77.27;95699.06;4974384;28;20298;-70
2022/05/30 07:41:18;;;;;;;5.10;2.60;;;;;;;13.50;79.73;95695.59;4973846;28;20613;-70
2022/05/30 07:43:45;;;;;;;4.55;3.13;;;;;;;13.17;82.12;95704.59;4972730;28;20275;-70
2022/05/30 07:46:14;;;;;;;4.80;2.97;;;;;;;13.36;79.68;95706.41;4973958;28;20246;-70
2022/05/30 07:48:40;;;;;;;4.97;2.60;;;;;;;13.51;78.07;95713.09;4973863;28;20223;-69
2022/05/30 07:51:10;;;;;;;5.68;3.40;;;;;;;13.66;84.45;95704.91;4972571;28;20738;-68
2022/05/30 07:53:38;;;;;;;4.03;2.60;;;;;;;13.71;78.50;95703.25;4971110;28;20214;-68
2022/05/30 07:56:06;;;;;;;4.57;2.95;;;;;;;13.67;77.50;95709.16;4974107;28;20691;-69
2022/05/30 07:58:33;;;;;;;6.50;3.22;;;;;;;13.83;79.29;95706.06;4973421;28;20284;-69
2022/05/30 08:01:00;;;;;;;5.13;2.92;;;;;;;14.05;79.14;95711.69;4973400;28;20959;-70
2022/05/30 08:03:27;;;;;;;4.35;2.83;;;;;;;13.87;79.11;95708.09;4973355;28;20218;-69
2022/05/30 08:06:03;;;;;;;6.03;3.60;;;;;;;13.68;80.41;95709.00;4976736;28;20227;-70
2022/05/30 08:08:31;;;;;;;4.32;3.00;;;;;;;13.75;78.07;95704.47;4975895;28;21083;-68
2022/05/30 08:10:57;;;;;;;4.43;2.65;;;;;;;14.00;78.91;95708.84;4977519;28;20590;-70
2022/05/30 08:13:24;;;;;;;4.72;2.85;;;;;;;14.25;76.81;95709.78;4976566;28;20250;-70
2022/05/30 08:15:50;;;;;;;4.50;2.40;;;;;;;14.42;74.64;95713.56;4976540;28;20235;-69
2022/05/30 08:18:20;;;;;;;5.93;2.72;;;;;;;14.17;75.45;95712.66;4977909;28;20207;-70
2022/05/30 08:20:47;;;;;;;4.20;2.63;;;;;;;13.87;74.92;95715.22;4976342;28;20874;-70
2022/05/30 08:23:13;;;;;;;3.28;2.55;;;;;;;14.04;75.04;95711.91;4974705;28;20208;-70
2022/05/30 08:25:43;;;;;;;3.85;2.70;;;;;;;14.22;77.36;95717.34;4977364;28;20230;-70
2022/05/30 08:28:10;;;;;;;5.70;2.80;;;;;;;13.77;77.37;95717.50;4976957;28;20600;-68
2022/05/30 08:30:37;;;;;;;5.38;2.95;;;;;;;13.84;77.00;95716.44;4974326;28;20219;-68
2022/05/30 08:33:09;;;;;;;3.85;2.60;;;;;;;14.36;76.31;95713.63;4977167;28;20230;-70
2022/05/30 08:35:36;;;;;;;2.38;1.80;;;;;;;14.70;72.25;95706.03;4977528;28;20677;-70
2022/05/30 08:38:02;;;;;;;2.72;2.10;;;;;;;14.99;71.73;95716.81;4976417;28;20203;-68
2022/05/30 08:43:24;;;;;;;3.30;1.98;;;;;;;15.69;70.96;95713.75;4976615;28;20241;-71
2022/05/30 08:45:54;;;;;;;3.22;1.77;;;;;;;15.74;66.48;95711.25;4977120;28;20230;-70
2022/05/30 08:48:33;;;;;;;2.42;1.50;;;;;;;15.82;62.37;95718.94;4976419;28;20238;-70
2022/05/30 08:51:14;;;;;;;3.38;1.67;;;;;;;15.65;66.17;95717.88;4976031;28;20668;-70
2022/05/30 08:53:58;;;;;;;2.95;2.13;;;;;;;15.70;65.91;95715.38;4976636;28;20264;-70
2022/05/30 08:56:29;;;;;;;3.08;2.10;;;;;;;15.41;65.72;95716.91;4976701;28;20230;-68
2022/05/30 08:59:19;;;;;;;4.13;2.40;;;;;;;15.35;67.22;95722.25;4976267;28;20203;-68
2022/05/30 09:01:50;;;;;;;2.83;2.00;;;;;;;15.99;66.36;95721.56;4976772;28;20207;-68
2022/05/30 09:04:25;;;;;;;3.35;1.80;;;;;;;16.18;62.97;95723.19;4976126;28;21241;-68
2022/05/30 09:06:57;;;;;;;2.10;1.42;;;;;;;16.19;63.81;95721.34;4976087;28;20237;-68
2022/05/30 09:09:28;;;;;;;5.22;1.77;;;;;;;15.76;62.07;95731.25;4976258;28;20312;-67
2022/05/30 09:11:59;;;;;;;1.83;1.10;;;;;;;15.81;58.34;95722.59;4976491;28;20207;-69
2022/05/30 09:14:39;;;;;;;2.90;1.13;;;;;;;15.68;59.37;95722.75;4975990;28;20213;-70
2022/05/30 09:17:12;;;;;;;2.45;1.17;;;;;;;15.14;63.03;95725.28;4976633;28;20267;-69
2022/05/30 09:19:40;;;;;;;3.65;1.33;;;;;;;14.96;61.35;95717.25;4976638;28;20207;-69
2022/05/30 09:22:09;;;;;;;4.22;1.00;;;;;;;15.36;59.16;95718.56;4975917;28;21081;-68
2022/05/30 09:24:36;;;;;;;5.93;1.30;;;;;;;15.68;59.00;95717.44;4975727;28;20207;-69
2022/05/30 09:27:05;;;;;;;5.70;1.50;;;;;;;15.87;60.35;95715.38;4976424;28;20238;-69
2022/05/30 09:29:37;;;;;;;4.13;1.35;;;;;;;16.19;65.99;95722.16;4973857;28;20601;-70
2022/05/30 09:32:12;;;;;;;2.72;1.50;;;;;;;16.34;59.40;95714.63;4976407;28;20237;-69
2022/05/30 09:34:45;;;;;;;1.92;1.35;;;;;;;16.79;64.32;95707.84;4976294;28;20211;-69
2022/05/30 09:37:25;;;;;;;5.05;1.25;;;;;;;16.78;57.17;95716.88;4976027;28;20249;-70
2022/05/30 09:39:52;;;;;;;2.63;1.23;;;;;;;16.53;54.49;95713.53;4976392;28;20207;-70
2022/05/30 09:42:26;;;;;;;2.50;1.52;;;;;;;16.45;55.05;95707.75;4975481;28;20203;-69
2022/05/30 09:44:57;;;;;;;1.88;1.30;;;;;;;16.91;53.27;95700.72;4976071;28;20582;-70
2022/05/30 09:47:24;;;;;;;1.92;1.27;;;;;;;17.06;52.80;95703.75;4975120;28;20227;-70
2022/05/30 09:49:52;;;;;;;2.42;1.20;;;;;;;17.43;52.42;95700.69;4976210;28;20254;-68
2022/05/30 09:52:30;;;;;;;3.03;1.33;;;;;;;17.85;52.92;95705.63;4975523;28;20647;-70
2022/05/30 09:54:57;;;;;;;1.90;1.00;;;;;;;18.04;51.51;95699.13;4975906;28;20210;-68
2022/05/30 09:57:28;;;;;;;3.40;1.10;;;;;;;18.15;52.50;95695.59;4976018;28;20223;-69
2022/05/30 09:59:58;;;;;;;2.25;1.10;;;;;;;18.70;50.17;95687.63;4975532;28;20288;-70
2022/05/30 10:02:27;;;;;;;5.38;1.10;;;;;;;18.21;48.17;95702.69;4975115;28;20211;-69
2022/05/30 10:05:00;;;;;;;1.70;1.13;;;;;;;18.40;47.50;95710.28;4976284;28;20207;-70
2022/05/30 10:07:26;;;;;;;1.05;0.95;;;;;;;17.12;46.29;95703.66;4976106;28;20582;-69
2022/05/30 10:09:55;;;;;;;4.93;1.17;;;;;;;17.20;50.22;95700.66;4975348;28;20372;-69
2022/05/30 10:12:35;;;;;;;2.05;1.42;;;;;;;17.77;48.37;95708.66;4974427;28;20690;-69
2022/05/30 10:15:22;;;;;;;2.35;0.90;;;;;;;18.20;45.45;95703.72;4976130;28;20211;-69
2022/05/30 10:17:50;;;;;;;1.30;1.13;;;;;;;18.39;49.16;95706.81;4975071;28;20211;-69
2022/05/30 10:20:24;;;;;;;6.85;1.92;;;;;;;18.13;45.51;95706.50;4975209;28;20213;-69
2022/05/30 10:28:54;;;;;;;2.47;1.30;;;;;;;16.76;49.52;95711.78;4933749;29;20927;-69
2022/05/30 10:31:40;;;;;;;1.67;1.10;;;;;;;16.93;50.13;95714.59;4959031;28;20214;-69
2022/05/30 10:34:39;;;;;;;2.80;1.23;;;;;;;17.18;51.75;95714.19;4974616;28;20203;-69
2022/05/30 10:37:20;;;;;;;3.10;1.27;;;;;;;16.88;52.45;95714.44;4975365;28;20235;-69
2022/05/30 10:40:02;;;;;;;2.50;1.38;;;;;;;17.13;49.32;95718.56;4974846;28;20203;-68
2022/05/30 10:42:36;;;;;;;3.17;1.20;;;;;;;16.84;52.46;95721.28;4974362;28;20229;-69
2022/05/30 10:45:10;;;;;;;2.05;1.20;;;;;;;16.64;49.51;95715.44;4975336;28;20218;-68
2022/05/30 10:47:41;;;;;;;2.33;1.10;;;;;;;16.34;51.11;95725.25;4974811;28;20280;-68
2022/05/30 10:50:14;;;;;;;1.88;1.00;;;;;;;16.70;48.88;95719.84;4975070;28;20218;-71
2022/05/30 10:52:46;;;;;;;2.05;1.25;;;;;;;17.29;48.24;95720.59;4974428;28;20207;-69
2022/05/30 10:55:18;;;;;;;1.73;1.25;;;;;;;17.28;47.96;95718.97;4975264;28;20203;-69
2022/05/30 10:57:49;;;;;;;2.60;1.42;;;;;;;17.17;50.43;95720.56;4974405;28;20203;-68
2022/05/30 11:00:18;;;;;;;1.88;1.30;;;;;;;17.33;49.90;95730.53;4974987;28;20968;-68
2022/05/30 11:02:53;;;;;;;1.60;1.20;;;;;;;17.00;47.34;95718.78;4974092;28;20671;-70
2022/05/30 11:05:24;;;;;;;1.95;1.42;;;;;;;16.96;47.26;95724.78;4974190;28;20217;-69
2022/05/30 11:07:56;;;;;;;1.73;1.20;;;;;;;17.02;47.99;95731.84;4975136;28;20211;-69
2022/05/30 11:10:41;;;;;;;3.67;1.20;;;;;;;17.06;50.95;95731.19;4974579;28;20386;-69
2022/05/30 11:13:17;;;;;;;5.03;1.50;;;;;;;17.49;50.81;95731.72;4973281;28;20203;-70
2022/05/30 11:15:49;;;;;;;1.90;1.27;;;;;;;17.86;51.38;95734.72;4975051;28;20227;-69
2022/05/30 11:18:26;;;;;;;1.42;1.17;;;;;;;18.83;44.74;95727.38;4974415;28;20204;-69
2022/05/30 11:21:01;;;;;;;3.85;1.40;;;;;;;18.55;49.00;95735.38;4973354;28;20587;-67
2022/05/30 11:23:28;;;;;;;2.33;1.30;;;;;;;19.23;46.49;95728.09;4973616;28;20207;-69
2022/05/30 11:26:23;;;;;;;2.10;1.30;;;;;;;19.98;41.32;95732.78;4974460;28;20257;-69
2022/05/30 11:29:15;;;;;;;6.07;1.30;;;;;;;20.29;44.75;95736.41;4973393;28;20223;-69
2022/05/30 11:31:51;;;;;;;5.80;1.40;;;;;;;19.95;46.12;95726.06;4974349;28;20211;-69
2022/05/30 11:34:49;;;;;;;2.40;1.27;;;;;;;20.20;46.59;95731.75;4973714;28;20214;-69
2022/05/30 11:37:36;;;;;;;3.08;1.30;;;;;;;20.15;40.68;95725.50;4973566;28;20230;-70
2022/05/30 11:40:15;;;;;;;2.47;1.35;;;;;;;20.31;41.65;95728.13;4975893;28;20199;-70
2022/05/30 11:42:49;;;;;;;2.03;1.20;;;;;;;20.72;40.78;95719.53;4977310;28;20211;-70
2022/05/30 11:45:31;;;;;;;7.63;1.10;;;;;;;20.73;43.38;95729.22;4977649;28;20218;-69
2022/05/30 11:48:08;;;;;;;1.85;1.20;;;;;;;20.09;38.78;95730.00;4977807;28;20293;-69
2022/05/30 11:50:41;;;;;;;2.85;1.27;;;;;;;18.86;41.30;95732.22;4976059;28;20207;-69
2022/05/30 11:53:56;;;;;;;1.90;1.27;;;;;;;19.21;40.34;95727.56;4975288;28;20208;-69
2022/05/30 11:56:31;;;;;;;1.58;1.20;;;;;;;18.71;42.15;95734.66;4976657;28;20618;-69
2022/05/30 11:59:21;;;;;;;2.00;0.98;;;;;;;18.52;45.94;95732.38;4975767;28;20292;-69
2022/05/30 12:01:52;;;;;;;1.23;0.88;;;;;;;18.74;47.31;95736.03;4976393;28;20212;-69
2022/05/30 12:04:56;;;;;;;1.40;1.00;;;;;;;19.62;44.91;95744.78;4975307;28;20218;-69
2022/05/30 12:07:56;;;;;;;1.23;1.08;;;;;;;20.82;42.09;95733.06;4976134;28;20312;-69
2022/05/30 12:10:32;;;;;;;3.53;1.38;;;;;;;20.89;39.54;95737.16;4976871;28;20230;-69
2022/05/30 12:13:14;;;;;;;2.28;0.90;;;;;;;20.27;40.39;95737.72;4975226;28;20698;-69
2022/05/30 12:16:11;;;;;;;2.67;0.95;;;;;;;19.49;46.31;95738.97;4975108;28;20227;-69